sensor_id;sensor_type;location;lat;lon;timestamp;temperature;humidity
46091;DHT22;31826;53.572;10.170;2023-03-19T00:02:21;10.30;99.90
46091;DHT22;31826;53.572;10.170;2023-03-19T00:04:47;10.30;99.90
46091;DHT22;31826;53.572;10.170;2023-03-19T00:07:13;10.30;99.90
46091;DHT22;31826;53.572;10.170;2023-03-19T00:09:40;10.20;99.90
46091;DHT22;31826;53.572;10.170;2023-03-19T00:12:07;10.10;99.90
46091;DHT22;31826;53.572;10.170;2023-03-19T00:14:33;10.00;99.90
46091;DHT22;31826;53.572;10.170;2023-03-19T00:16:59;10.00;99.90
46091;DHT22;31826;53.572;10.170;2023-03-19T00:19:25;10.00;99.90
46091;DHT22;31826;53.572;10.170;2023-03-19T00:21:51;9.90;99.90
46091;DHT22;31826;53.572;10.170;2023-03-19T00:24:17;9.90;99.90
46091;DHT22;31826;53.572;10.170;2023-03-19T00:26:43;9.90;99.90
46091;DHT22;31826;53.572;10.170;2023-03-19T00:29:09;9.80;99.90
46091;DHT22;31826;53.572;10.170;2023-03-19T00:31:35;9.80;99.90
46091;DHT22;31826;53.572;10.170;2023-03-19T00:34:01;9.70;99.90
46091;DHT22;31826;53.572;10.170;2023-03-19T00:36:28;9.80;99.90
46091;DHT22;31826;53.572;10.170;2023-03-19T00:38:55;9.70;99.90
46091;DHT22;31826;53.572;10.170;2023-03-19T00:41:21;9.70;99.90
46091;DHT22;31826;53.572;10.170;2023-03-19T00:43:51;9.70;99.90
46091;DHT22;31826;53.572;10.170;2023-03-19T00:46:18;9.70;99.90
46091;DHT22;31826;53.572;10.170;2023-03-19T00:48:44;9.70;99.90
46091;DHT22;31826;53.572;10.170;2023-03-19T00:51:10;9.70;99.90
46091;DHT22;31826;53.572;10.170;2023-03-19T00:53:45;9.70;99.90
46091;DHT22;31826;53.572;10.170;2023-03-19T00:56:12;9.70;99.90
46091;DHT22;31826;53.572;10.170;2023-03-19T00:58:38;9.70;99.90
46091;DHT22;31826;53.572;10.170;2023-03-19T01:01:07;9.70;99.90
46091;DHT22;31826;53.572;10.170;2023-03-19T01:03:33;9.60;99.90
46091;DHT22;31826;53.572;10.170;2023-03-19T01:05:59;9.70;99.90
46091;DHT22;31826;53.572;10.170;2023-03-19T01:08:24;9.60;99.90
46091;DHT22;31826;53.572;10.170;2023-03-19T01:10:50;9.60;99.90
46091;DHT22;31826;53.572;10.170;2023-03-19T01:13:16;9.60;99.90
46091;DHT22;31826;53.572;10.170;2023-03-19T01:15:43;9.60;99.90
46091;DHT22;31826;53.572;10.170;2023-03-19T01:18:10;9.60;99.90
46091;DHT22;31826;53.572;10.170;2023-03-19T01:20:37;9.60;99.90
46091;DHT22;31826;53.572;10.170;2023-03-19T01:23:03;9.60;99.90
46091;DHT22;31826;53.572;10.170;2023-03-19T01:25:29;9.50;99.90
46091;DHT22;31826;53.572;10.170;2023-03-19T01:27:55;9.40;99.90
46091;DHT22;31826;53.572;10.170;2023-03-19T01:30:21;9.40;99.90
46091;DHT22;31826;53.572;10.170;2023-03-19T01:32:47;9.40;99.90
46091;DHT22;31826;53.572;10.170;2023-03-19T01:35:13;9.40;99.90
46091;DHT22;31826;53.572;10.170;2023-03-19T01:37:39;9.40;99.90
46091;DHT22;31826;53.572;10.170;2023-03-19T01:40:06;9.50;99.90
46091;DHT22;31826;53.572;10.170;2023-03-19T01:42:32;9.40;99.90
46091;DHT22;31826;53.572;10.170;2023-03-19T01:44:58;9.40;99.90
46091;DHT22;31826;53.572;10.170;2023-03-19T01:47:29;9.40;99.90
46091;DHT22;31826;53.572;10.170;2023-03-19T01:49:56;9.30;99.90
46091;DHT22;31826;53.572;10.170;2023-03-19T01:52:26;9.30;99.90
46091;DHT22;31826;53.572;10.170;2023-03-19T01:54:53;9.40;99.90
46091;DHT22;31826;53.572;10.170;2023-03-19T01:57:21;9.40;99.90
46091;DHT22;31826;53.572;10.170;2023-03-19T01:59:52;9.30;99.90
46091;DHT22;31826;53.572;10.170;2023-03-19T02:02:23;9.30;99.90
46091;DHT22;31826;53.572;10.170;2023-03-19T02:04:52;9.30;99.90
46091;DHT22;31826;53.572;10.170;2023-03-19T02:07:21;9.30;99.90
46091;DHT22;31826;53.572;10.170;2023-03-19T02:09:47;9.30;99.90
46091;DHT22;31826;53.572;10.170;2023-03-19T02:12:14;9.30;99.90
46091;DHT22;31826;53.572;10.170;2023-03-19T02:14:40;9.30;99.90
46091;DHT22;31826;53.572;10.170;2023-03-19T02:17:06;9.30;99.90
46091;DHT22;31826;53.572;10.170;2023-03-19T02:22:05;9.30;99.90
46091;DHT22;31826;53.572;10.170;2023-03-19T02:24:34;9.30;99.90
46091;DHT22;31826;53.572;10.170;2023-03-19T02:27:02;9.30;99.90
46091;DHT22;31826;53.572;10.170;2023-03-19T02:29:28;9.30;99.90
46091;DHT22;31826;53.572;10.170;2023-03-19T02:31:54;9.20;99.90
46091;DHT22;31826;53.572;10.170;2023-03-19T02:36:53;9.30;99.90
46091;DHT22;31826;53.572;10.170;2023-03-19T02:39:25;9.30;99.90
46091;DHT22;31826;53.572;10.170;2023-03-19T02:41:53;9.20;99.90
46091;DHT22;31826;53.572;10.170;2023-03-19T02:44:20;9.30;99.90
46091;DHT22;31826;53.572;10.170;2023-03-19T02:46:46;9.30;99.90
46091;DHT22;31826;53.572;10.170;2023-03-19T02:49:12;9.30;99.90
46091;DHT22;31826;53.572;10.170;2023-03-19T02:51:37;9.20;99.90
46091;DHT22;31826;53.572;10.170;2023-03-19T02:54:03;9.20;99.90
46091;DHT22;31826;53.572;10.170;2023-03-19T02:56:30;9.20;99.90
46091;DHT22;31826;53.572;10.170;2023-03-19T02:58:55;9.20;99.90
46091;DHT22;31826;53.572;10.170;2023-03-19T03:01:21;9.20;99.90
46091;DHT22;31826;53.572;10.170;2023-03-19T03:03:47;9.10;99.90
46091;DHT22;31826;53.572;10.170;2023-03-19T03:06:13;9.10;99.90
46091;DHT22;31826;53.572;10.170;2023-03-19T03:08:38;9.00;99.90
46091;DHT22;31826;53.572;10.170;2023-03-19T03:11:05;9.00;99.90
46091;DHT22;31826;53.572;10.170;2023-03-19T03:13:30;8.90;99.90
46091;DHT22;31826;53.572;10.170;2023-03-19T03:15:56;8.90;99.90
46091;DHT22;31826;53.572;10.170;2023-03-19T03:18:22;8.80;99.90
46091;DHT22;31826;53.572;10.170;2023-03-19T03:20:48;8.80;99.90
46091;DHT22;31826;53.572;10.170;2023-03-19T03:23:13;8.70;99.90
46091;DHT22;31826;53.572;10.170;2023-03-19T03:25:39;8.70;99.90
46091;DHT22;31826;53.572;10.170;2023-03-19T03:28:05;8.80;99.90
46091;DHT22;31826;53.572;10.170;2023-03-19T03:30:32;8.70;99.90
46091;DHT22;31826;53.572;10.170;2023-03-19T03:32:57;8.70;99.90
46091;DHT22;31826;53.572;10.170;2023-03-19T03:35:23;8.70;99.90
46091;DHT22;31826;53.572;10.170;2023-03-19T03:37:50;8.70;99.90
46091;DHT22;31826;53.572;10.170;2023-03-19T03:40:16;8.60;99.90
46091;DHT22;31826;53.572;10.170;2023-03-19T03:42:43;8.60;99.90
46091;DHT22;31826;53.572;10.170;2023-03-19T03:45:09;8.50;99.90
46091;DHT22;31826;53.572;10.170;2023-03-19T03:47:35;8.60;99.90
46091;DHT22;31826;53.572;10.170;2023-03-19T03:50:02;8.50;99.90
46091;DHT22;31826;53.572;10.170;2023-03-19T03:52:30;8.50;99.90
46091;DHT22;31826;53.572;10.170;2023-03-19T03:54:56;8.50;99.90
46091;DHT22;31826;53.572;10.170;2023-03-19T03:57:23;8.50;99.90
46091;DHT22;31826;53.572;10.170;2023-03-19T03:59:49;8.40;99.90
46091;DHT22;31826;53.572;10.170;2023-03-19T04:02:14;8.40;99.90
46091;DHT22;31826;53.572;10.170;2023-03-19T04:04:40;8.30;99.90
46091;DHT22;31826;53.572;10.170;2023-03-19T04:07:06;8.30;99.90
46091;DHT22;31826;53.572;10.170;2023-03-19T04:09:32;8.30;99.90
46091;DHT22;31826;53.572;10.170;2023-03-19T04:11:58;8.30;99.90
46091;DHT22;31826;53.572;10.170;2023-03-19T04:14:25;8.30;99.90
46091;DHT22;31826;53.572;10.170;2023-03-19T04:16:51;8.30;99.90
46091;DHT22;31826;53.572;10.170;2023-03-19T04:19:17;8.30;99.90
46091;DHT22;31826;53.572;10.170;2023-03-19T04:21:43;8.30;99.90
46091;DHT22;31826;53.572;10.170;2023-03-19T04:24:10;8.30;99.90
46091;DHT22;31826;53.572;10.170;2023-03-19T04:26:36;8.30;99.90
46091;DHT22;31826;53.572;10.170;2023-03-19T04:29:02;8.30;99.90
46091;DHT22;31826;53.572;10.170;2023-03-19T04:31:28;8.30;99.90
46091;DHT22;31826;53.572;10.170;2023-03-19T04:33:54;8.30;99.90
46091;DHT22;31826;53.572;10.170;2023-03-19T04:36:20;8.30;99.90
46091;DHT22;31826;53.572;10.170;2023-03-19T04:38:46;8.20;99.90
46091;DHT22;31826;53.572;10.170;2023-03-19T04:41:13;8.20;99.90
46091;DHT22;31826;53.572;10.170;2023-03-19T04:43:40;8.20;99.90
46091;DHT22;31826;53.572;10.170;2023-03-19T04:46:06;8.20;99.90
46091;DHT22;31826;53.572;10.170;2023-03-19T04:48:35;8.10;99.90
46091;DHT22;31826;53.572;10.170;2023-03-19T04:51:02;8.10;99.90
46091;DHT22;31826;53.572;10.170;2023-03-19T04:53:28;8.10;99.90
46091;DHT22;31826;53.572;10.170;2023-03-19T04:55:54;8.00;99.90
46091;DHT22;31826;53.572;10.170;2023-03-19T04:58:20;8.00;99.90
46091;DHT22;31826;53.572;10.170;2023-03-19T05:00:46;8.10;99.90
46091;DHT22;31826;53.572;10.170;2023-03-19T05:03:15;8.00;99.90
46091;DHT22;31826;53.572;10.170;2023-03-19T05:05:41;8.00;99.90
46091;DHT22;31826;53.572;10.170;2023-03-19T05:08:07;8.00;99.90
46091;DHT22;31826;53.572;10.170;2023-03-19T05:10:34;8.00;99.90
46091;DHT22;31826;53.572;10.170;2023-03-19T05:13:01;8.10;99.90
46091;DHT22;31826;53.572;10.170;2023-03-19T05:15:26;8.10;99.90
46091;DHT22;31826;53.572;10.170;2023-03-19T05:17:52;8.20;99.90
46091;DHT22;31826;53.572;10.170;2023-03-19T05:20:18;8.20;99.90
46091;DHT22;31826;53.572;10.170;2023-03-19T05:22:44;8.30;99.90
46091;DHT22;31826;53.572;10.170;2023-03-19T05:25:13;8.30;99.90
46091;DHT22;31826;53.572;10.170;2023-03-19T05:27:39;8.30;99.90
46091;DHT22;31826;53.572;10.170;2023-03-19T05:30:05;8.40;99.90
46091;DHT22;31826;53.572;10.170;2023-03-19T05:32:31;8.40;99.90
46091;DHT22;31826;53.572;10.170;2023-03-19T05:34:58;8.40;99.90
46091;DHT22;31826;53.572;10.170;2023-03-19T05:37:24;8.50;99.90
46091;DHT22;31826;53.572;10.170;2023-03-19T05:39:51;8.60;99.90
46091;DHT22;31826;53.572;10.170;2023-03-19T05:42:16;8.50;99.90
46091;DHT22;31826;53.572;10.170;2023-03-19T05:44:42;8.60;99.90
46091;DHT22;31826;53.572;10.170;2023-03-19T05:47:09;8.60;99.90
46091;DHT22;31826;53.572;10.170;2023-03-19T05:49:36;8.60;99.90
46091;DHT22;31826;53.572;10.170;2023-03-19T05:52:02;8.60;99.90
46091;DHT22;31826;53.572;10.170;2023-03-19T05:54:28;8.70;99.90
46091;DHT22;31826;53.572;10.170;2023-03-19T05:56:53;8.70;99.90
46091;DHT22;31826;53.572;10.170;2023-03-19T05:59:20;8.70;99.90
46091;DHT22;31826;53.572;10.170;2023-03-19T06:01:46;8.80;99.90
46091;DHT22;31826;53.572;10.170;2023-03-19T06:04:11;8.80;99.90
46091;DHT22;31826;53.572;10.170;2023-03-19T06:06:37;8.80;99.90
46091;DHT22;31826;53.572;10.170;2023-03-19T06:09:03;8.80;99.90
46091;DHT22;31826;53.572;10.170;2023-03-19T06:11:29;8.80;99.90
46091;DHT22;31826;53.572;10.170;2023-03-19T06:13:54;8.80;99.90
46091;DHT22;31826;53.572;10.170;2023-03-19T06:16:20;8.80;99.90
46091;DHT22;31826;53.572;10.170;2023-03-19T06:18:46;8.90;99.90
46091;DHT22;31826;53.572;10.170;2023-03-19T06:21:12;8.90;99.90
46091;DHT22;31826;53.572;10.170;2023-03-19T06:23:38;9.00;99.90
46091;DHT22;31826;53.572;10.170;2023-03-19T06:26:04;9.10;99.90
46091;DHT22;31826;53.572;10.170;2023-03-19T06:28:30;9.20;99.90
46091;DHT22;31826;53.572;10.170;2023-03-19T06:30:57;9.30;99.90
46091;DHT22;31826;53.572;10.170;2023-03-19T06:33:23;9.40;99.90
46091;DHT22;31826;53.572;10.170;2023-03-19T06:35:52;9.40;99.90
46091;DHT22;31826;53.572;10.170;2023-03-19T06:38:18;9.50;99.90
46091;DHT22;31826;53.572;10.170;2023-03-19T06:40:44;9.50;99.90
46091;DHT22;31826;53.572;10.170;2023-03-19T06:43:09;9.50;99.90
46091;DHT22;31826;53.572;10.170;2023-03-19T06:45:36;9.50;99.90
46091;DHT22;31826;53.572;10.170;2023-03-19T06:48:02;9.60;99.90
46091;DHT22;31826;53.572;10.170;2023-03-19T06:50:27;9.70;99.90
46091;DHT22;31826;53.572;10.170;2023-03-19T06:52:53;9.80;99.90
46091;DHT22;31826;53.572;10.170;2023-03-19T06:55:19;9.90;99.90
46091;DHT22;31826;53.572;10.170;2023-03-19T06:57:51;10.00;99.90
46091;DHT22;31826;53.572;10.170;2023-03-19T07:00:17;10.20;99.90
46091;DHT22;31826;53.572;10.170;2023-03-19T07:02:44;10.30;99.90
46091;DHT22;31826;53.572;10.170;2023-03-19T07:05:09;10.40;99.90
46091;DHT22;31826;53.572;10.170;2023-03-19T07:07:35;10.50;99.90
46091;DHT22;31826;53.572;10.170;2023-03-19T07:10:01;10.70;99.90
46091;DHT22;31826;53.572;10.170;2023-03-19T07:12:28;10.70;99.90
46091;DHT22;31826;53.572;10.170;2023-03-19T07:14:54;10.90;99.90
46091;DHT22;31826;53.572;10.170;2023-03-19T07:17:23;11.10;99.90
46091;DHT22;31826;53.572;10.170;2023-03-19T07:19:50;11.20;99.90
46091;DHT22;31826;53.572;10.170;2023-03-19T07:22:16;11.20;99.90
46091;DHT22;31826;53.572;10.170;2023-03-19T07:24:42;11.20;99.90
46091;DHT22;31826;53.572;10.170;2023-03-19T07:27:08;11.30;99.90
46091;DHT22;31826;53.572;10.170;2023-03-19T07:29:34;11.30;99.90
46091;DHT22;31826;53.572;10.170;2023-03-19T07:31:59;11.40;99.90
46091;DHT22;31826;53.572;10.170;2023-03-19T07:34:25;11.60;99.90
46091;DHT22;31826;53.572;10.170;2023-03-19T07:36:51;11.70;99.90
46091;DHT22;31826;53.572;10.170;2023-03-19T07:39:18;12.00;99.90
46091;DHT22;31826;53.572;10.170;2023-03-19T07:41:44;12.20;99.90
46091;DHT22;31826;53.572;10.170;2023-03-19T07:44:13;12.30;99.90
46091;DHT22;31826;53.572;10.170;2023-03-19T07:46:39;12.30;99.90
46091;DHT22;31826;53.572;10.170;2023-03-19T07:49:05;12.40;99.90
46091;DHT22;31826;53.572;10.170;2023-03-19T07:51:30;12.60;99.90
46091;DHT22;31826;53.572;10.170;2023-03-19T07:53:56;12.90;99.90
46091;DHT22;31826;53.572;10.170;2023-03-19T07:56:22;13.10;99.90
46091;DHT22;31826;53.572;10.170;2023-03-19T07:58:47;13.30;99.90
46091;DHT22;31826;53.572;10.170;2023-03-19T08:01:13;13.20;99.90
46091;DHT22;31826;53.572;10.170;2023-03-19T08:03:39;13.30;99.90
46091;DHT22;31826;53.572;10.170;2023-03-19T08:06:05;13.40;99.90
46091;DHT22;31826;53.572;10.170;2023-03-19T08:08:30;13.50;99.90
46091;DHT22;31826;53.572;10.170;2023-03-19T08:10:59;13.60;99.90
46091;DHT22;31826;53.572;10.170;2023-03-19T08:13:25;13.70;99.90
46091;DHT22;31826;53.572;10.170;2023-03-19T08:15:51;14.10;99.90
46091;DHT22;31826;53.572;10.170;2023-03-19T08:18:18;14.20;99.90
46091;DHT22;31826;53.572;10.170;2023-03-19T08:20:45;14.10;99.90
46091;DHT22;31826;53.572;10.170;2023-03-19T08:23:12;13.80;99.90
46091;DHT22;31826;53.572;10.170;2023-03-19T08:25:38;13.70;99.90
46091;DHT22;31826;53.572;10.170;2023-03-19T08:28:04;13.70;99.90
46091;DHT22;31826;53.572;10.170;2023-03-19T08:30:29;13.60;99.90
46091;DHT22;31826;53.572;10.170;2023-03-19T08:32:56;13.40;99.90
46091;DHT22;31826;53.572;10.170;2023-03-19T08:35:23;13.30;99.90
46091;DHT22;31826;53.572;10.170;2023-03-19T08:37:52;13.30;99.90
46091;DHT22;31826;53.572;10.170;2023-03-19T08:40:19;13.20;99.90
46091;DHT22;31826;53.572;10.170;2023-03-19T08:42:45;13.10;99.90
46091;DHT22;31826;53.572;10.170;2023-03-19T08:45:12;12.90;99.90
46091;DHT22;31826;53.572;10.170;2023-03-19T08:47:38;12.80;99.90
46091;DHT22;31826;53.572;10.170;2023-03-19T08:50:05;12.80;99.90
46091;DHT22;31826;53.572;10.170;2023-03-19T08:52:31;12.80;99.90
46091;DHT22;31826;53.572;10.170;2023-03-19T08:54:56;12.80;99.90
46091;DHT22;31826;53.572;10.170;2023-03-19T08:57:22;12.80;99.90
46091;DHT22;31826;53.572;10.170;2023-03-19T08:59:48;13.00;99.90
46091;DHT22;31826;53.572;10.170;2023-03-19T09:02:14;13.10;99.90
46091;DHT22;31826;53.572;10.170;2023-03-19T09:04:43;13.60;99.90
46091;DHT22;31826;53.572;10.170;2023-03-19T09:07:09;14.10;99.90
46091;DHT22;31826;53.572;10.170;2023-03-19T09:09:38;14.20;99.90
46091;DHT22;31826;53.572;10.170;2023-03-19T09:12:04;14.30;99.90
46091;DHT22;31826;53.572;10.170;2023-03-19T09:14:32;14.20;99.90
46091;DHT22;31826;53.572;10.170;2023-03-19T09:16:57;14.10;99.90
46091;DHT22;31826;53.572;10.170;2023-03-19T09:19:23;14.30;99.90
46091;DHT22;31826;53.572;10.170;2023-03-19T09:21:49;14.60;99.90
46091;DHT22;31826;53.572;10.170;2023-03-19T09:24:15;14.90;99.90
46091;DHT22;31826;53.572;10.170;2023-03-19T09:26:41;15.30;99.90
46091;DHT22;31826;53.572;10.170;2023-03-19T09:29:06;15.60;99.90
46091;DHT22;31826;53.572;10.170;2023-03-19T09:31:32;15.70;99.90
46091;DHT22;31826;53.572;10.170;2023-03-19T09:33:58;16.00;99.90
46091;DHT22;31826;53.572;10.170;2023-03-19T09:36:24;16.20;99.90
46091;DHT22;31826;53.572;10.170;2023-03-19T09:38:50;16.90;99.90
46091;DHT22;31826;53.572;10.170;2023-03-19T09:44:04;18.00;99.90
46091;DHT22;31826;53.572;10.170;2023-03-19T09:49:24;17.60;99.90
46091;DHT22;31826;53.572;10.170;2023-03-19T09:54:41;17.60;99.90
46091;DHT22;31826;53.572;10.170;2023-03-19T09:57:09;17.70;99.90
46091;DHT22;31826;53.572;10.170;2023-03-19T09:59:35;17.90;99.90
46091;DHT22;31826;53.572;10.170;2023-03-19T10:07:33;16.50;99.90
46091;DHT22;31826;53.572;10.170;2023-03-19T10:15:55;16.70;99.90
46091;DHT22;31826;53.572;10.170;2023-03-19T10:18:27;17.10;99.90
46091;DHT22;31826;53.572;10.170;2023-03-19T10:21:10;17.80;99.90
46091;DHT22;31826;53.572;10.170;2023-03-19T10:23:44;18.30;99.90
46091;DHT22;31826;53.572;10.170;2023-03-19T10:26:16;18.70;99.40
46091;DHT22;31826;53.572;10.170;2023-03-19T10:28:45;18.80;99.90
46091;DHT22;31826;53.572;10.170;2023-03-19T10:31:38;19.50;99.50
46091;DHT22;31826;53.572;10.170;2023-03-19T10:37:14;20.50;97.60
46091;DHT22;31826;53.572;10.170;2023-03-19T10:39:44;19.80;96.70
46091;DHT22;31826;53.572;10.170;2023-03-19T10:43:29;19.50;96.30
46091;DHT22;31826;53.572;10.170;2023-03-19T10:45:30;19.90;96.80
46091;DHT22;31826;53.572;10.170;2023-03-19T10:47:58;19.90;95.80
46091;DHT22;31826;53.572;10.170;2023-03-19T10:50:36;20.10;94.90
46091;DHT22;31826;53.572;10.170;2023-03-19T10:55:52;20.20;94.90
46091;DHT22;31826;53.572;10.170;2023-03-19T10:58:26;20.10;94.60
46091;DHT22;31826;53.572;10.170;2023-03-19T11:01:04;19.60;94.90
46091;DHT22;31826;53.572;10.170;2023-03-19T11:03:39;20.00;95.40
46091;DHT22;31826;53.572;10.170;2023-03-19T11:08:56;20.00;94.80
46091;DHT22;31826;53.572;10.170;2023-03-19T11:11:35;19.40;95.40
46091;DHT22;31826;53.572;10.170;2023-03-19T11:14:15;18.80;95.60
46091;DHT22;31826;53.572;10.170;2023-03-19T11:16:53;18.60;96.30
46091;DHT22;31826;53.572;10.170;2023-03-19T11:19:22;18.60;96.80
46091;DHT22;31826;53.572;10.170;2023-03-19T11:24:47;18.30;96.80
46091;DHT22;31826;53.572;10.170;2023-03-19T11:27:13;18.20;96.80
46091;DHT22;31826;53.572;10.170;2023-03-19T11:29:41;18.20;97.20
46091;DHT22;31826;53.572;10.170;2023-03-19T11:32:39;18.00;96.90
46091;DHT22;31826;53.572;10.170;2023-03-19T11:35:25;17.80;97.50
46091;DHT22;31826;53.572;10.170;2023-03-19T11:40:44;17.80;97.00
46091;DHT22;31826;53.572;10.170;2023-03-19T11:46:33;17.70;97.20
46091;DHT22;31826;53.572;10.170;2023-03-19T11:51:40;17.70;97.10
46091;DHT22;31826;53.572;10.170;2023-03-19T11:57:07;18.50;97.00
46091;DHT22;31826;53.572;10.170;2023-03-19T11:59:48;19.20;96.20
46091;DHT22;31826;53.572;10.170;2023-03-19T12:02:54;20.20;95.00
46091;DHT22;31826;53.572;10.170;2023-03-19T12:05:43;20.80;93.30
46091;DHT22;31826;53.572;10.170;2023-03-19T12:08:18;20.70;93.00
46091;DHT22;31826;53.572;10.170;2023-03-19T12:11:00;20.40;93.50
46091;DHT22;31826;53.572;10.170;2023-03-19T12:13:46;19.60;93.60
46091;DHT22;31826;53.572;10.170;2023-03-19T12:27:33;18.10;96.50
46091;DHT22;31826;53.572;10.170;2023-03-19T12:35:17;17.60;97.00
46091;DHT22;31826;53.572;10.170;2023-03-19T12:43:36;17.20;97.90
46091;DHT22;31826;53.572;10.170;2023-03-19T12:49:04;17.00;98.20
46091;DHT22;31826;53.572;10.170;2023-03-19T12:51:38;16.90;98.30
46091;DHT22;31826;53.572;10.170;2023-03-19T12:54:58;16.90;98.70
46091;DHT22;31826;53.572;10.170;2023-03-19T13:08:36;17.40;99.00
46091;DHT22;31826;53.572;10.170;2023-03-19T13:11:10;17.50;99.40
46091;DHT22;31826;53.572;10.170;2023-03-19T13:21:40;17.30;98.90
46091;DHT22;31826;53.572;10.170;2023-03-19T13:26:46;17.20;99.90
46091;DHT22;31826;53.572;10.170;2023-03-19T13:31:49;17.10;99.90
46091;DHT22;31826;53.572;10.170;2023-03-19T13:34:25;17.10;99.90
46091;DHT22;31826;53.572;10.170;2023-03-19T13:39:30;16.80;99.90
46091;DHT22;31826;53.572;10.170;2023-03-19T13:44:51;16.30;99.90
46091;DHT22;31826;53.572;10.170;2023-03-19T13:58:17;15.20;99.90
46091;DHT22;31826;53.572;10.170;2023-03-19T14:01:04;15.30;99.90
46091;DHT22;31826;53.572;10.170;2023-03-19T14:03:32;15.30;99.90
46091;DHT22;31826;53.572;10.170;2023-03-19T14:06:00;15.30;99.90
46091;DHT22;31826;53.572;10.170;2023-03-19T14:08:41;15.20;99.90
46091;DHT22;31826;53.572;10.170;2023-03-19T14:11:08;15.10;99.90
46091;DHT22;31826;53.572;10.170;2023-03-19T14:13:39;15.10;99.90
46091;DHT22;31826;53.572;10.170;2023-03-19T14:18:39;15.00;99.90
46091;DHT22;31826;53.572;10.170;2023-03-19T14:21:10;14.90;99.90
46091;DHT22;31826;53.572;10.170;2023-03-19T14:23:40;14.90;99.90
46091;DHT22;31826;53.572;10.170;2023-03-19T14:26:15;14.90;99.90
46091;DHT22;31826;53.572;10.170;2023-03-19T14:29:05;14.80;99.90
46091;DHT22;31826;53.572;10.170;2023-03-19T14:31:51;14.70;99.90
46091;DHT22;31826;53.572;10.170;2023-03-19T14:34:34;14.70;99.90
46091;DHT22;31826;53.572;10.170;2023-03-19T14:39:41;14.70;99.90
46091;DHT22;31826;53.572;10.170;2023-03-19T14:42:22;14.70;99.90
46091;DHT22;31826;53.572;10.170;2023-03-19T14:45:19;14.60;99.90
46091;DHT22;31826;53.572;10.170;2023-03-19T14:53:48;14.60;99.90
46091;DHT22;31826;53.572;10.170;2023-03-19T14:56:20;14.60;99.90
46091;DHT22;31826;53.572;10.170;2023-03-19T14:58:55;14.60;99.90
46091;DHT22;31826;53.572;10.170;2023-03-19T15:01:23;14.60;99.90
46091;DHT22;31826;53.572;10.170;2023-03-19T15:04:03;14.50;99.90
46091;DHT22;31826;53.572;10.170;2023-03-19T15:06:35;14.60;99.90
46091;DHT22;31826;53.572;10.170;2023-03-19T15:09:16;14.50;99.90
46091;DHT22;31826;53.572;10.170;2023-03-19T15:15:12;14.10;99.90
46091;DHT22;31826;53.572;10.170;2023-03-19T15:17:41;14.00;99.90
46091;DHT22;31826;53.572;10.170;2023-03-19T15:20:21;14.10;99.90
46091;DHT22;31826;53.572;10.170;2023-03-19T15:23:16;14.10;99.90
46091;DHT22;31826;53.572;10.170;2023-03-19T15:25:50;13.90;99.90
46091;DHT22;31826;53.572;10.170;2023-03-19T15:28:18;13.90;99.90
46091;DHT22;31826;53.572;10.170;2023-03-19T15:30:44;13.90;99.90
46091;DHT22;31826;53.572;10.170;2023-03-19T15:33:20;13.90;99.90
46091;DHT22;31826;53.572;10.170;2023-03-19T15:35:58;13.90;99.90
46091;DHT22;31826;53.572;10.170;2023-03-19T15:38:27;14.00;99.90
46091;DHT22;31826;53.572;10.170;2023-03-19T15:40:54;14.10;99.90
46091;DHT22;31826;53.572;10.170;2023-03-19T15:43:20;14.20;99.90
46091;DHT22;31826;53.572;10.170;2023-03-19T15:45:49;14.20;99.90
46091;DHT22;31826;53.572;10.170;2023-03-19T15:48:21;14.20;99.90
46091;DHT22;31826;53.572;10.170;2023-03-19T15:50:51;14.20;99.90
46091;DHT22;31826;53.572;10.170;2023-03-19T15:53:22;14.30;99.90
46091;DHT22;31826;53.572;10.170;2023-03-19T15:55:51;14.20;99.90
46091;DHT22;31826;53.572;10.170;2023-03-19T15:58:26;14.40;99.90
46091;DHT22;31826;53.572;10.170;2023-03-19T16:00:53;14.40;99.90
46091;DHT22;31826;53.572;10.170;2023-03-19T16:03:40;14.40;99.90
46091;DHT22;31826;53.572;10.170;2023-03-19T16:06:16;14.20;99.90
46091;DHT22;31826;53.572;10.170;2023-03-19T16:08:53;14.30;99.90
46091;DHT22;31826;53.572;10.170;2023-03-19T16:16:39;14.30;99.90
46091;DHT22;31826;53.572;10.170;2023-03-19T16:19:30;14.40;99.90
46091;DHT22;31826;53.572;10.170;2023-03-19T16:21:56;14.40;99.90
46091;DHT22;31826;53.572;10.170;2023-03-19T16:24:34;14.40;99.90
46091;DHT22;31826;53.572;10.170;2023-03-19T16:27:19;14.30;99.90
46091;DHT22;31826;53.572;10.170;2023-03-19T16:29:57;14.20;99.90
46091;DHT22;31826;53.572;10.170;2023-03-19T16:32:28;14.10;99.90
46091;DHT22;31826;53.572;10.170;2023-03-19T16:34:56;14.10;99.90
46091;DHT22;31826;53.572;10.170;2023-03-19T16:37:42;14.00;99.90
46091;DHT22;31826;53.572;10.170;2023-03-19T16:42:40;14.00;99.90
46091;DHT22;31826;53.572;10.170;2023-03-19T16:45:20;13.90;99.90
46091;DHT22;31826;53.572;10.170;2023-03-19T16:47:47;13.90;99.90
46091;DHT22;31826;53.572;10.170;2023-03-19T16:50:14;13.80;99.90
46091;DHT22;31826;53.572;10.170;2023-03-19T16:52:41;13.80;99.90
46091;DHT22;31826;53.572;10.170;2023-03-19T16:58:06;13.70;99.90
46091;DHT22;31826;53.572;10.170;2023-03-19T17:00:35;13.70;99.90
46091;DHT22;31826;53.572;10.170;2023-03-19T17:03:01;13.50;99.90
46091;DHT22;31826;53.572;10.170;2023-03-19T17:05:27;13.50;99.90
46091;DHT22;31826;53.572;10.170;2023-03-19T17:07:53;13.40;99.90
46091;DHT22;31826;53.572;10.170;2023-03-19T17:10:21;13.40;99.90
46091;DHT22;31826;53.572;10.170;2023-03-19T17:12:50;13.40;99.90
46091;DHT22;31826;53.572;10.170;2023-03-19T17:15:32;13.30;99.90
46091;DHT22;31826;53.572;10.170;2023-03-19T17:18:01;13.30;99.90
46091;DHT22;31826;53.572;10.170;2023-03-19T17:20:33;13.20;99.90
46091;DHT22;31826;53.572;10.170;2023-03-19T17:23:00;13.10;99.90
46091;DHT22;31826;53.572;10.170;2023-03-19T17:25:26;13.10;99.90
46091;DHT22;31826;53.572;10.170;2023-03-19T17:27:52;13.10;99.90
46091;DHT22;31826;53.572;10.170;2023-03-19T17:30:18;13.00;99.90
46091;DHT22;31826;53.572;10.170;2023-03-19T17:32:46;13.00;99.90
46091;DHT22;31826;53.572;10.170;2023-03-19T17:35:19;13.00;99.90
46091;DHT22;31826;53.572;10.170;2023-03-19T17:37:46;12.90;99.90
46091;DHT22;31826;53.572;10.170;2023-03-19T17:40:23;12.80;99.90
46091;DHT22;31826;53.572;10.170;2023-03-19T17:42:51;12.70;99.90
46091;DHT22;31826;53.572;10.170;2023-03-19T17:45:19;12.60;99.90
46091;DHT22;31826;53.572;10.170;2023-03-19T17:47:49;12.60;99.90
46091;DHT22;31826;53.572;10.170;2023-03-19T17:50:21;12.50;99.90
46091;DHT22;31826;53.572;10.170;2023-03-19T17:52:48;12.40;99.90
46091;DHT22;31826;53.572;10.170;2023-03-19T17:55:23;12.40;99.90